sensor_id;sensor_type;location;lat;lon;timestamp;P1;durP1;ratioP1;P2;durP2;ratioP2
21432;SDS011;18592;49.708;10.900;2023-03-13T00:01:32;7.15;;;2.35;;
21432;SDS011;18592;49.708;10.900;2023-03-13T00:03:44;4.75;;;2.17;;
21432;SDS011;18592;49.708;10.900;2023-03-13T00:05:46;6.65;;;2.53;;
21432;SDS011;18592;49.708;10.900;2023-03-13T00:07:47;4.63;;;2.10;;
21432;SDS011;18592;49.708;10.900;2023-03-13T00:09:49;5.55;;;2.53;;
21432;SDS011;18592;49.708;10.900;2023-03-13T00:11:50;4.93;;;1.90;;
21432;SDS011;18592;49.708;10.900;2023-03-13T00:13:53;5.32;;;2.33;;
21432;SDS011;18592;49.708;10.900;2023-03-13T00:16:00;4.72;;;2.40;;
21432;SDS011;18592;49.708;10.900;2023-03-13T00:18:14;4.30;;;2.03;;
21432;SDS011;18592;49.708;10.900;2023-03-13T00:20:17;4.95;;;2.17;;
21432;SDS011;18592;49.708;10.900;2023-03-13T00:22:19;6.20;;;2.20;;
21432;SDS011;18592;49.708;10.900;2023-03-13T00:24:24;4.38;;;2.30;;
21432;SDS011;18592;49.708;10.900;2023-03-13T00:26:28;6.38;;;2.33;;
21432;SDS011;18592;49.708;10.900;2023-03-13T00:28:31;4.13;;;2.15;;
21432;SDS011;18592;49.708;10.900;2023-03-13T00:30:33;6.15;;;2.28;;
21432;SDS011;18592;49.708;10.900;2023-03-13T00:32:41;3.63;;;1.80;;
21432;SDS011;18592;49.708;10.900;2023-03-13T00:34:44;5.18;;;2.13;;
21432;SDS011;18592;49.708;10.900;2023-03-13T00:36:45;3.10;;;2.05;;
21432;SDS011;18592;49.708;10.900;2023-03-13T00:38:48;4.63;;;2.05;;
21432;SDS011;18592;49.708;10.900;2023-03-13T00:40:57;3.25;;;1.90;;
21432;SDS011;18592;49.708;10.900;2023-03-13T00:43:00;4.55;;;2.30;;
21432;SDS011;18592;49.708;10.900;2023-03-13T00:45:02;5.53;;;2.40;;
21432;SDS011;18592;49.708;10.900;2023-03-13T00:47:04;4.00;;;2.10;;
21432;SDS011;18592;49.708;10.900;2023-03-13T00:49:07;4.57;;;2.33;;
21432;SDS011;18592;49.708;10.900;2023-03-13T00:51:09;4.97;;;2.38;;
21432;SDS011;18592;49.708;10.900;2023-03-13T00:53:11;6.18;;;2.45;;
21432;SDS011;18592;49.708;10.900;2023-03-13T00:55:13;3.28;;;1.83;;
21432;SDS011;18592;49.708;10.900;2023-03-13T00:57:17;4.45;;;2.05;;
21432;SDS011;18592;49.708;10.900;2023-03-13T00:59:19;4.57;;;1.88;;
21432;SDS011;18592;49.708;10.900;2023-03-13T01:01:22;6.40;;;1.92;;
21432;SDS011;18592;49.708;10.900;2023-03-13T01:03:24;4.20;;;1.90;;
21432;SDS011;18592;49.708;10.900;2023-03-13T01:05:26;5.25;;;2.25;;
21432;SDS011;18592;49.708;10.900;2023-03-13T01:07:28;4.13;;;2.30;;
21432;SDS011;18592;49.708;10.900;2023-03-13T01:09:30;5.95;;;2.20;;
21432;SDS011;18592;49.708;10.900;2023-03-13T01:11:33;4.22;;;2.10;;
21432;SDS011;18592;49.708;10.900;2023-03-13T01:13:36;4.00;;;1.80;;
21432;SDS011;18592;49.708;10.900;2023-03-13T01:15:38;5.32;;;2.33;;
21432;SDS011;18592;49.708;10.900;2023-03-13T01:17:39;4.95;;;2.28;;
21432;SDS011;18592;49.708;10.900;2023-03-13T01:19:45;4.07;;;1.80;;
21432;SDS011;18592;49.708;10.900;2023-03-13T01:21:50;5.47;;;2.05;;
21432;SDS011;18592;49.708;10.900;2023-03-13T01:23:53;4.95;;;2.15;;
21432;SDS011;18592;49.708;10.900;2023-03-13T01:25:57;2.85;;;1.83;;
21432;SDS011;18592;49.708;10.900;2023-03-13T01:27:59;4.22;;;2.15;;
21432;SDS011;18592;49.708;10.900;2023-03-13T01:30:02;3.95;;;2.03;;
21432;SDS011;18592;49.708;10.900;2023-03-13T01:32:03;5.65;;;2.10;;
21432;SDS011;18592;49.708;10.900;2023-03-13T01:34:07;4.90;;;2.15;;
21432;SDS011;18592;49.708;10.900;2023-03-13T01:36:10;5.60;;;2.58;;
21432;SDS011;18592;49.708;10.900;2023-03-13T01:38:13;4.75;;;2.10;;
21432;SDS011;18592;49.708;10.900;2023-03-13T01:40:15;5.30;;;1.80;;
21432;SDS011;18592;49.708;10.900;2023-03-13T01:42:17;6.80;;;2.25;;
21432;SDS011;18592;49.708;10.900;2023-03-13T01:44:23;6.05;;;2.42;;
21432;SDS011;18592;49.708;10.900;2023-03-13T01:46:28;5.38;;;2.30;;
21432;SDS011;18592;49.708;10.900;2023-03-13T01:51:12;5.45;;;1.98;;
21432;SDS011;18592;49.708;10.900;2023-03-13T01:53:22;7.13;;;2.50;;
21432;SDS011;18592;49.708;10.900;2023-03-13T01:55:24;5.15;;;2.03;;
21432;SDS011;18592;49.708;10.900;2023-03-13T01:57:31;4.85;;;1.98;;
21432;SDS011;18592;49.708;10.900;2023-03-13T02:00:12;6.53;;;2.13;;
21432;SDS011;18592;49.708;10.900;2023-03-13T02:02:15;3.35;;;1.90;;
21432;SDS011;18592;49.708;10.900;2023-03-13T02:04:17;5.05;;;2.30;;
21432;SDS011;18592;49.708;10.900;2023-03-13T02:06:28;3.92;;;2.17;;
21432;SDS011;18592;49.708;10.900;2023-03-13T02:08:33;5.05;;;2.15;;
21432;SDS011;18592;49.708;10.900;2023-03-13T02:10:50;3.42;;;2.00;;
21432;SDS011;18592;49.708;10.900;2023-03-13T02:12:56;3.85;;;2.08;;
21432;SDS011;18592;49.708;10.900;2023-03-13T02:15:03;6.95;;;2.22;;
21432;SDS011;18592;49.708;10.900;2023-03-13T02:17:09;4.25;;;2.13;;
21432;SDS011;18592;49.708;10.900;2023-03-13T02:19:46;5.40;;;2.00;;
21432;SDS011;18592;49.708;10.900;2023-03-13T02:26:25;5.90;;;2.33;;
21432;SDS011;18592;49.708;10.900;2023-03-13T02:28:28;6.57;;;2.25;;
21432;SDS011;18592;49.708;10.900;2023-03-13T02:30:36;4.22;;;1.83;;
21432;SDS011;18592;49.708;10.900;2023-03-13T02:32:40;4.57;;;1.83;;
21432;SDS011;18592;49.708;10.900;2023-03-13T02:34:42;5.75;;;2.30;;
21432;SDS011;18592;49.708;10.900;2023-03-13T02:36:45;7.45;;;1.85;;
21432;SDS011;18592;49.708;10.900;2023-03-13T02:38:54;3.80;;;1.75;;
21432;SDS011;18592;49.708;10.900;2023-03-13T02:41:00;5.60;;;1.67;;
21432;SDS011;18592;49.708;10.900;2023-03-13T02:43:08;5.15;;;2.03;;
21432;SDS011;18592;49.708;10.900;2023-03-13T02:45:15;5.57;;;2.42;;
21432;SDS011;18592;49.708;10.900;2023-03-13T02:47:21;5.32;;;2.20;;
21432;SDS011;18592;49.708;10.900;2023-03-13T02:49:28;4.45;;;1.98;;
21432;SDS011;18592;49.708;10.900;2023-03-13T02:51:32;5.47;;;1.92;;
21432;SDS011;18592;49.708;10.900;2023-03-13T02:53:39;5.50;;;2.17;;
21432;SDS011;18592;49.708;10.900;2023-03-13T02:55:45;6.30;;;2.47;;
21432;SDS011;18592;49.708;10.900;2023-03-13T02:57:49;4.20;;;1.80;;
21432;SDS011;18592;49.708;10.900;2023-03-13T02:59:51;4.60;;;2.13;;
21432;SDS011;18592;49.708;10.900;2023-03-13T03:01:52;7.18;;;2.20;;
21432;SDS011;18592;49.708;10.900;2023-03-13T03:03:55;4.40;;;1.80;;
21432;SDS011;18592;49.708;10.900;2023-03-13T03:05:58;4.93;;;1.98;;
21432;SDS011;18592;49.708;10.900;2023-03-13T03:08:02;5.82;;;2.35;;
21432;SDS011;18592;49.708;10.900;2023-03-13T03:10:05;6.95;;;2.40;;
21432;SDS011;18592;49.708;10.900;2023-03-13T03:12:08;6.45;;;1.90;;
21432;SDS011;18592;49.708;10.900;2023-03-13T03:14:12;5.43;;;1.85;;
21432;SDS011;18592;49.708;10.900;2023-03-13T03:16:17;6.00;;;2.08;;
21432;SDS011;18592;49.708;10.900;2023-03-13T03:18:21;6.82;;;2.38;;
21432;SDS011;18592;49.708;10.900;2023-03-13T03:20:23;6.03;;;2.05;;
21432;SDS011;18592;49.708;10.900;2023-03-13T03:22:27;6.18;;;2.20;;
21432;SDS011;18592;49.708;10.900;2023-03-13T03:24:29;3.72;;;1.83;;
21432;SDS011;18592;49.708;10.900;2023-03-13T03:26:30;5.90;;;2.03;;
21432;SDS011;18592;49.708;10.900;2023-03-13T03:28:32;7.53;;;1.98;;
21432;SDS011;18592;49.708;10.900;2023-03-13T03:30:38;6.05;;;2.05;;
21432;SDS011;18592;49.708;10.900;2023-03-13T03:32:39;6.18;;;2.10;;
21432;SDS011;18592;49.708;10.900;2023-03-13T03:34:41;4.90;;;1.70;;
21432;SDS011;18592;49.708;10.900;2023-03-13T03:36:43;7.97;;;2.30;;
21432;SDS011;18592;49.708;10.900;2023-03-13T03:38:44;8.02;;;2.22;;
21432;SDS011;18592;49.708;10.900;2023-03-13T03:40:49;5.78;;;2.53;;
21432;SDS011;18592;49.708;10.900;2023-03-13T03:42:51;4.28;;;1.70;;
21432;SDS011;18592;49.708;10.900;2023-03-13T03:44:52;7.38;;;1.88;;
21432;SDS011;18592;49.708;10.900;2023-03-13T03:46:54;5.53;;;2.00;;
21432;SDS011;18592;49.708;10.900;2023-03-13T03:48:57;5.93;;;2.05;;
21432;SDS011;18592;49.708;10.900;2023-03-13T03:50:59;7.57;;;2.08;;
21432;SDS011;18592;49.708;10.900;2023-03-13T03:53:02;4.25;;;1.83;;
21432;SDS011;18592;49.708;10.900;2023-03-13T03:55:04;5.60;;;2.05;;
21432;SDS011;18592;49.708;10.900;2023-03-13T03:57:05;6.20;;;1.95;;
21432;SDS011;18592;49.708;10.900;2023-03-13T03:59:08;7.07;;;2.70;;
21432;SDS011;18592;49.708;10.900;2023-03-13T04:01:29;5.07;;;1.90;;
21432;SDS011;18592;49.708;10.900;2023-03-13T04:03:31;6.65;;;2.45;;
21432;SDS011;18592;49.708;10.900;2023-03-13T04:05:33;5.97;;;1.98;;
21432;SDS011;18592;49.708;10.900;2023-03-13T04:07:35;6.85;;;2.25;;
21432;SDS011;18592;49.708;10.900;2023-03-13T04:09:36;5.07;;;2.25;;
21432;SDS011;18592;49.708;10.900;2023-03-13T04:11:40;5.07;;;2.22;;
21432;SDS011;18592;49.708;10.900;2023-03-13T04:13:44;8.25;;;2.70;;
21432;SDS011;18592;49.708;10.900;2023-03-13T04:15:47;7.22;;;1.88;;
21432;SDS011;18592;49.708;10.900;2023-03-13T04:17:50;4.53;;;1.63;;
21432;SDS011;18592;49.708;10.900;2023-03-13T04:19:54;6.15;;;2.28;;
21432;SDS011;18592;49.708;10.900;2023-03-13T04:21:56;5.47;;;1.98;;
21432;SDS011;18592;49.708;10.900;2023-03-13T04:24:01;5.35;;;1.75;;
21432;SDS011;18592;49.708;10.900;2023-03-13T04:26:08;5.97;;;2.00;;
21432;SDS011;18592;49.708;10.900;2023-03-13T04:28:14;7.13;;;1.85;;
21432;SDS011;18592;49.708;10.900;2023-03-13T04:30:17;6.80;;;2.15;;
21432;SDS011;18592;49.708;10.900;2023-03-13T04:32:51;4.72;;;1.60;;
21432;SDS011;18592;49.708;10.900;2023-03-13T04:35:05;5.72;;;2.00;;
21432;SDS011;18592;49.708;10.900;2023-03-13T04:37:25;4.97;;;2.13;;
21432;SDS011;18592;49.708;10.900;2023-03-13T04:39:45;8.13;;;2.20;;
21432;SDS011;18592;49.708;10.900;2023-03-13T04:41:56;7.07;;;2.00;;
21432;SDS011;18592;49.708;10.900;2023-03-13T04:44:27;7.30;;;2.55;;
21432;SDS011;18592;49.708;10.900;2023-03-13T04:46:52;6.25;;;2.10;;
21432;SDS011;18592;49.708;10.900;2023-03-13T04:49:31;8.48;;;1.80;;
21432;SDS011;18592;49.708;10.900;2023-03-13T04:51:43;4.40;;;1.90;;
21432;SDS011;18592;49.708;10.900;2023-03-13T04:53:45;6.32;;;2.10;;
21432;SDS011;18592;49.708;10.900;2023-03-13T04:56:23;4.63;;;2.10;;
21432;SDS011;18592;49.708;10.900;2023-03-13T04:59:01;5.93;;;1.95;;
21432;SDS011;18592;49.708;10.900;2023-03-13T05:01:25;7.88;;;2.28;;
21432;SDS011;18592;49.708;10.900;2023-03-13T05:03:48;5.32;;;1.80;;
21432;SDS011;18592;49.708;10.900;2023-03-13T05:06:11;5.93;;;1.98;;
21432;SDS011;18592;49.708;10.900;2023-03-13T05:08:37;7.63;;;2.13;;
21432;SDS011;18592;49.708;10.900;2023-03-13T05:11:09;7.03;;;1.77;;
21432;SDS011;18592;49.708;10.900;2023-03-13T05:13:30;6.45;;;1.95;;
21432;SDS011;18592;49.708;10.900;2023-03-13T05:15:42;5.03;;;1.92;;
21432;SDS011;18592;49.708;10.900;2023-03-13T05:17:43;4.63;;;1.95;;
21432;SDS011;18592;49.708;10.900;2023-03-13T05:20:08;3.55;;;1.98;;
21432;SDS011;18592;49.708;10.900;2023-03-13T05:22:34;4.40;;;1.98;;
21432;SDS011;18592;49.708;10.900;2023-03-13T05:24:50;5.32;;;1.60;;
21432;SDS011;18592;49.708;10.900;2023-03-13T05:27:11;6.13;;;2.17;;
21432;SDS011;18592;49.708;10.900;2023-03-13T05:29:47;4.63;;;1.70;;
21432;SDS011;18592;49.708;10.900;2023-03-13T05:32:15;3.92;;;1.75;;
21432;SDS011;18592;49.708;10.900;2023-03-13T05:34:31;5.13;;;2.00;;
21432;SDS011;18592;49.708;10.900;2023-03-13T05:37:02;4.20;;;1.70;;
21432;SDS011;18592;49.708;10.900;2023-03-13T05:39:06;5.68;;;1.90;;
21432;SDS011;18592;49.708;10.900;2023-03-13T05:41:22;5.28;;;2.25;;
21432;SDS011;18592;49.708;10.900;2023-03-13T05:43:47;6.40;;;1.73;;
21432;SDS011;18592;49.708;10.900;2023-03-13T05:46:04;3.63;;;1.95;;
21432;SDS011;18592;49.708;10.900;2023-03-13T05:48:29;6.72;;;1.88;;
21432;SDS011;18592;49.708;10.900;2023-03-13T05:50:56;3.45;;;1.58;;
21432;SDS011;18592;49.708;10.900;2023-03-13T05:53:19;4.57;;;1.80;;
21432;SDS011;18592;49.708;10.900;2023-03-13T05:55:35;4.40;;;1.77;;
21432;SDS011;18592;49.708;10.900;2023-03-13T05:57:50;4.57;;;1.70;;
21432;SDS011;18592;49.708;10.900;2023-03-13T06:00:15;3.70;;;1.67;;
21432;SDS011;18592;49.708;10.900;2023-03-13T06:02:31;5.03;;;2.08;;
21432;SDS011;18592;49.708;10.900;2023-03-13T06:04:34;6.88;;;1.98;;
21432;SDS011;18592;49.708;10.900;2023-03-13T06:06:36;4.95;;;1.95;;
21432;SDS011;18592;49.708;10.900;2023-03-13T06:08:38;5.10;;;1.98;;
21432;SDS011;18592;49.708;10.900;2023-03-13T06:10:40;2.92;;;1.45;;
21432;SDS011;18592;49.708;10.900;2023-03-13T06:12:42;4.68;;;1.80;;
21432;SDS011;18592;49.708;10.900;2023-03-13T06:14:46;5.57;;;2.05;;
21432;SDS011;18592;49.708;10.900;2023-03-13T06:16:59;4.80;;;1.80;;
21432;SDS011;18592;49.708;10.900;2023-03-13T06:19:01;3.97;;;1.42;;
21432;SDS011;18592;49.708;10.900;2023-03-13T06:21:03;4.82;;;1.80;;
21432;SDS011;18592;49.708;10.900;2023-03-13T06:23:08;3.78;;;1.63;;
21432;SDS011;18592;49.708;10.900;2023-03-13T06:25:09;5.32;;;2.13;;
21432;SDS011;18592;49.708;10.900;2023-03-13T06:27:13;5.85;;;1.55;;
21432;SDS011;18592;49.708;10.900;2023-03-13T06:29:18;3.38;;;1.33;;
21432;SDS011;18592;49.708;10.900;2023-03-13T06:31:19;4.03;;;1.50;;
21432;SDS011;18592;49.708;10.900;2023-03-13T06:33:24;5.13;;;1.92;;
21432;SDS011;18592;49.708;10.900;2023-03-13T06:35:26;3.28;;;1.50;;
21432;SDS011;18592;49.708;10.900;2023-03-13T06:37:30;2.97;;;1.50;;
21432;SDS011;18592;49.708;10.900;2023-03-13T06:39:35;3.83;;;1.33;;
21432;SDS011;18592;49.708;10.900;2023-03-13T06:41:37;3.13;;;1.30;;
21432;SDS011;18592;49.708;10.900;2023-03-13T06:43:41;3.90;;;1.48;;
21432;SDS011;18592;49.708;10.900;2023-03-13T06:45:43;2.88;;;1.45;;
21432;SDS011;18592;49.708;10.900;2023-03-13T06:47:45;4.75;;;1.58;;
21432;SDS011;18592;49.708;10.900;2023-03-13T06:49:46;4.10;;;1.38;;
21432;SDS011;18592;49.708;10.900;2023-03-13T06:51:48;4.82;;;1.73;;
21432;SDS011;18592;49.708;10.900;2023-03-13T06:53:49;3.10;;;1.17;;
21432;SDS011;18592;49.708;10.900;2023-03-13T06:55:52;3.70;;;1.45;;
21432;SDS011;18592;49.708;10.900;2023-03-13T06:57:54;5.85;;;1.50;;
21432;SDS011;18592;49.708;10.900;2023-03-13T06:59:56;3.65;;;1.50;;
21432;SDS011;18592;49.708;10.900;2023-03-13T07:01:57;3.35;;;1.30;;
21432;SDS011;18592;49.708;10.900;2023-03-13T07:03:59;5.35;;;1.60;;
21432;SDS011;18592;49.708;10.900;2023-03-13T07:06:01;3.28;;;1.40;;
21432;SDS011;18592;49.708;10.900;2023-03-13T07:08:04;4.85;;;1.77;;
21432;SDS011;18592;49.708;10.900;2023-03-13T07:10:09;2.85;;;1.08;;
21432;SDS011;18592;49.708;10.900;2023-03-13T07:12:17;4.18;;;1.40;;
21432;SDS011;18592;49.708;10.900;2023-03-13T07:14:19;3.05;;;1.30;;
21432;SDS011;18592;49.708;10.900;2023-03-13T07:16:26;2.78;;;1.05;;
21432;SDS011;18592;49.708;10.900;2023-03-13T07:18:28;3.70;;;1.30;;
21432;SDS011;18592;49.708;10.900;2023-03-13T07:20:34;1.80;;;1.20;;
21432;SDS011;18592;49.708;10.900;2023-03-13T07:22:36;1.88;;;1.10;;
21432;SDS011;18592;49.708;10.900;2023-03-13T07:24:38;3.70;;;1.30;;
21432;SDS011;18592;49.708;10.900;2023-03-13T07:26:39;4.18;;;1.25;;
21432;SDS011;18592;49.708;10.900;2023-03-13T07:29:04;2.80;;;1.10;;
21432;SDS011;18592;49.708;10.900;2023-03-13T07:31:12;2.22;;;1.10;;
21432;SDS011;18592;49.708;10.900;2023-03-13T07:33:18;2.95;;;1.30;;
21432;SDS011;18592;49.708;10.900;2023-03-13T07:35:20;3.80;;;1.38;;
21432;SDS011;18592;49.708;10.900;2023-03-13T07:37:22;3.85;;;1.20;;
21432;SDS011;18592;49.708;10.900;2023-03-13T07:39:26;2.95;;;1.15;;
21432;SDS011;18592;49.708;10.900;2023-03-13T07:41:28;3.33;;;1.30;;
21432;SDS011;18592;49.708;10.900;2023-03-13T07:43:29;3.20;;;1.10;;
21432;SDS011;18592;49.708;10.900;2023-03-13T07:45:31;2.75;;;1.10;;
21432;SDS011;18592;49.708;10.900;2023-03-13T07:47:33;3.45;;;1.13;;
21432;SDS011;18592;49.708;10.900;2023-03-13T07:49:35;3.15;;;0.98;;
21432;SDS011;18592;49.708;10.900;2023-03-13T07:51:44;3.03;;;1.10;;
21432;SDS011;18592;49.708;10.900;2023-03-13T07:53:48;1.98;;;0.82;;
21432;SDS011;18592;49.708;10.900;2023-03-13T07:55:54;2.20;;;0.90;;
21432;SDS011;18592;49.708;10.900;2023-03-13T07:57:59;3.67;;;1.17;;
21432;SDS011;18592;49.708;10.900;2023-03-13T08:00:01;1.85;;;1.20;;
21432;SDS011;18592;49.708;10.900;2023-03-13T08:02:12;2.95;;;1.17;;
21432;SDS011;18592;49.708;10.900;2023-03-13T08:04:17;2.22;;;0.95;;
21432;SDS011;18592;49.708;10.900;2023-03-13T08:06:22;1.58;;;0.77;;
21432;SDS011;18592;49.708;10.900;2023-03-13T08:08:25;1.30;;;1.05;;
21432;SDS011;18592;49.708;10.900;2023-03-13T08:10:27;2.15;;;0.93;;
21432;SDS011;18592;49.708;10.900;2023-03-13T08:12:29;3.35;;;1.23;;
21432;SDS011;18592;49.708;10.900;2023-03-13T08:14:33;1.85;;;1.10;;
21432;SDS011;18592;49.708;10.900;2023-03-13T08:16:34;3.28;;;1.00;;
21432;SDS011;18592;49.708;10.900;2023-03-13T08:18:37;1.92;;;1.10;;
21432;SDS011;18592;49.708;10.900;2023-03-13T08:20:40;1.55;;;0.80;;
21432;SDS011;18592;49.708;10.900;2023-03-13T08:22:41;1.95;;;1.00;;
21432;SDS011;18592;49.708;10.900;2023-03-13T08:24:43;2.67;;;1.05;;
21432;SDS011;18592;49.708;10.900;2023-03-13T08:26:44;2.33;;;1.10;;
21432;SDS011;18592;49.708;10.900;2023-03-13T08:28:46;2.72;;;1.10;;
21432;SDS011;18592;49.708;10.900;2023-03-13T08:30:52;1.42;;;0.85;;
21432;SDS011;18592;49.708;10.900;2023-03-13T08:32:53;1.23;;;0.80;;
21432;SDS011;18592;49.708;10.900;2023-03-13T08:34:55;1.98;;;0.90;;
21432;SDS011;18592;49.708;10.900;2023-03-13T08:36:57;2.05;;;1.02;;
21432;SDS011;18592;49.708;10.900;2023-03-13T08:38:59;0.93;;;0.70;;
21432;SDS011;18592;49.708;10.900;2023-03-13T08:41:02;1.95;;;0.82;;
21432;SDS011;18592;49.708;10.900;2023-03-13T08:43:04;3.80;;;1.10;;
21432;SDS011;18592;49.708;10.900;2023-03-13T08:45:05;1.45;;;0.82;;
21432;SDS011;18592;49.708;10.900;2023-03-13T08:47:08;2.50;;;0.93;;
21432;SDS011;18592;49.708;10.900;2023-03-13T08:49:09;1.50;;;0.95;;
21432;SDS011;18592;49.708;10.900;2023-03-13T08:51:13;3.55;;;1.17;;
21432;SDS011;18592;49.708;10.900;2023-03-13T08:53:17;2.33;;;0.90;;
21432;SDS011;18592;49.708;10.900;2023-03-13T08:55:19;1.67;;;0.90;;
21432;SDS011;18592;49.708;10.900;2023-03-13T08:57:21;3.30;;;1.27;;
21432;SDS011;18592;49.708;10.900;2023-03-13T08:59:22;1.73;;;0.70;;
21432;SDS011;18592;49.708;10.900;2023-03-13T09:01:25;2.22;;;0.90;;
21432;SDS011;18592;49.708;10.900;2023-03-13T09:03:28;1.90;;;0.85;;
21432;SDS011;18592;49.708;10.900;2023-03-13T09:05:30;3.95;;;1.08;;
21432;SDS011;18592;49.708;10.900;2023-03-13T09:07:32;1.40;;;0.60;;
21432;SDS011;18592;49.708;10.900;2023-03-13T09:09:34;1.60;;;0.82;;
21432;SDS011;18592;49.708;10.900;2023-03-13T09:11:38;2.33;;;0.90;;
21432;SDS011;18592;49.708;10.900;2023-03-13T09:13:41;2.58;;;0.90;;
21432;SDS011;18592;49.708;10.900;2023-03-13T09:15:54;1.75;;;1.08;;
21432;SDS011;18592;49.708;10.900;2023-03-13T09:17:59;2.53;;;0.95;;
21432;SDS011;18592;49.708;10.900;2023-03-13T09:20:01;3.58;;;0.98;;
21432;SDS011;18592;49.708;10.900;2023-03-13T09:22:03;1.92;;;0.70;;
21432;SDS011;18592;49.708;10.900;2023-03-13T09:24:04;1.20;;;0.90;;
21432;SDS011;18592;49.708;10.900;2023-03-13T09:26:07;1.98;;;0.90;;
21432;SDS011;18592;49.708;10.900;2023-03-13T09:28:09;1.73;;;1.23;;
21432;SDS011;18592;49.708;10.900;2023-03-13T09:30:11;3.15;;;1.00;;
21432;SDS011;18592;49.708;10.900;2023-03-13T09:32:13;1.95;;;0.80;;
21432;SDS011;18592;49.708;10.900;2023-03-13T09:34:15;2.45;;;0.80;;
21432;SDS011;18592;49.708;10.900;2023-03-13T09:36:22;1.42;;;0.70;;
21432;SDS011;18592;49.708;10.900;2023-03-13T09:38:25;1.52;;;0.88;;
21432;SDS011;18592;49.708;10.900;2023-03-13T09:40:26;2.72;;;1.00;;
21432;SDS011;18592;49.708;10.900;2023-03-13T09:42:34;1.23;;;0.70;;
21432;SDS011;18592;49.708;10.900;2023-03-13T09:45:11;1.23;;;0.50;;
21432;SDS011;18592;49.708;10.900;2023-03-13T09:49:41;1.00;;;0.70;;
21432;SDS011;18592;49.708;10.900;2023-03-13T09:51:52;0.85;;;0.50;;
21432;SDS011;18592;49.708;10.900;2023-03-13T09:54:23;0.57;;;0.55;;
21432;SDS011;18592;49.708;10.900;2023-03-13T09:56:46;0.98;;;0.60;;
21432;SDS011;18592;49.708;10.900;2023-03-13T09:58:58;0.65;;;0.50;;
21432;SDS011;18592;49.708;10.900;2023-03-13T10:01:13;0.80;;;0.40;;
21432;SDS011;18592;49.708;10.900;2023-03-13T10:03:25;0.95;;;0.60;;
21432;SDS011;18592;49.708;10.900;2023-03-13T10:05:45;0.47;;;0.45;;
21432;SDS011;18592;49.708;10.900;2023-03-13T10:07:49;0.70;;;0.50;;
21432;SDS011;18592;49.708;10.900;2023-03-13T10:10:37;0.57;;;0.32;;
21432;SDS011;18592;49.708;10.900;2023-03-13T10:12:46;0.50;;;0.40;;
21432;SDS011;18592;49.708;10.900;2023-03-13T10:17:21;0.47;;;0.40;;
21432;SDS011;18592;49.708;10.900;2023-03-13T10:19:33;1.17;;;0.70;;
21432;SDS011;18592;49.708;10.900;2023-03-13T10:21:43;1.42;;;0.40;;
21432;SDS011;18592;49.708;10.900;2023-03-13T10:26:15;0.70;;;0.50;;
21432;SDS011;18592;49.708;10.900;2023-03-13T10:28:24;0.68;;;0.68;;
21432;SDS011;18592;49.708;10.900;2023-03-13T10:32:27;1.48;;;0.95;;
21432;SDS011;18592;49.708;10.900;2023-03-13T10:34:51;0.93;;;0.82;;
21432;SDS011;18592;49.708;10.900;2023-03-13T10:36:59;1.13;;;0.70;;
21432;SDS011;18592;49.708;10.900;2023-03-13T10:39:07;1.30;;;0.90;;
21432;SDS011;18592;49.708;10.900;2023-03-13T10:41:25;1.77;;;1.10;;
21432;SDS011;18592;49.708;10.900;2023-03-13T10:43:29;1.25;;;1.02;;
21432;SDS011;18592;49.708;10.900;2023-03-13T10:45:32;2.38;;;1.30;;
21432;SDS011;18592;49.708;10.900;2023-03-13T10:47:35;3.50;;;1.40;;
21432;SDS011;18592;49.708;10.900;2023-03-13T10:49:45;2.20;;;1.30;;
21432;SDS011;18592;49.708;10.900;2023-03-13T10:51:52;2.35;;;1.33;;
21432;SDS011;18592;49.708;10.900;2023-03-13T10:53:56;2.10;;;1.33;;
21432;SDS011;18592;49.708;10.900;2023-03-13T10:56:15;3.58;;;1.35;;
21432;SDS011;18592;49.708;10.900;2023-03-13T10:58:32;2.78;;;1.42;;
21432;SDS011;18592;49.708;10.900;2023-03-13T11:00:36;2.40;;;1.38;;
21432;SDS011;18592;49.708;10.900;2023-03-13T11:02:43;1.92;;;1.27;;
21432;SDS011;18592;49.708;10.900;2023-03-13T11:04:46;4.80;;;1.60;;
21432;SDS011;18592;49.708;10.900;2023-03-13T11:06:52;2.90;;;1.20;;
21432;SDS011;18592;49.708;10.900;2023-03-13T11:11:17;3.10;;;1.30;;
21432;SDS011;18592;49.708;10.900;2023-03-13T11:15:46;2.72;;;1.30;;
21432;SDS011;18592;49.708;10.900;2023-03-13T11:18:09;3.47;;;1.30;;
21432;SDS011;18592;49.708;10.900;2023-03-13T11:22:28;2.05;;;1.08;;
21432;SDS011;18592;49.708;10.900;2023-03-13T11:29:20;2.15;;;1.00;;
21432;SDS011;18592;49.708;10.900;2023-03-13T11:31:40;2.13;;;1.17;;
21432;SDS011;18592;49.708;10.900;2023-03-13T11:34:01;2.63;;;1.30;;
21432;SDS011;18592;49.708;10.900;2023-03-13T11:40:30;2.00;;;0.98;;
21432;SDS011;18592;49.708;10.900;2023-03-13T11:44:58;2.22;;;1.15;;
21432;SDS011;18592;49.708;10.900;2023-03-13T11:52:00;2.33;;;1.23;;
21432;SDS011;18592;49.708;10.900;2023-03-13T11:56:25;1.45;;;0.73;;
21432;SDS011;18592;49.708;10.900;2023-03-13T11:58:42;1.17;;;0.85;;
21432;SDS011;18592;49.708;10.900;2023-03-13T12:01:08;1.67;;;1.00;;
21432;SDS011;18592;49.708;10.900;2023-03-13T12:05:53;2.53;;;0.80;;
21432;SDS011;18592;49.708;10.900;2023-03-13T12:08:00;1.83;;;0.90;;
21432;SDS011;18592;49.708;10.900;2023-03-13T12:10:10;1.70;;;1.10;;
21432;SDS011;18592;49.708;10.900;2023-03-13T12:12:28;2.05;;;1.10;;
21432;SDS011;18592;49.708;10.900;2023-03-13T12:16:50;2.67;;;1.13;;
21432;SDS011;18592;49.708;10.900;2023-03-13T12:19:15;1.50;;;1.10;;
21432;SDS011;18592;49.708;10.900;2023-03-13T12:23:45;1.40;;;1.05;;
21432;SDS011;18592;49.708;10.900;2023-03-13T12:25:54;1.67;;;1.17;;
21432;SDS011;18592;49.708;10.900;2023-03-13T12:33:01;1.20;;;0.80;;
21432;SDS011;18592;49.708;10.900;2023-03-13T12:35:41;2.80;;;1.15;;
21432;SDS011;18592;49.708;10.900;2023-03-13T12:40:24;1.33;;;0.93;;
21432;SDS011;18592;49.708;10.900;2023-03-13T12:44:42;1.42;;;0.93;;
21432;SDS011;18592;49.708;10.900;2023-03-13T12:46:45;1.80;;;1.30;;
21432;SDS011;18592;49.708;10.900;2023-03-13T12:48:53;1.92;;;1.20;;
21432;SDS011;18592;49.708;10.900;2023-03-13T12:55:54;1.60;;;1.10;;
21432;SDS011;18592;49.708;10.900;2023-03-13T13:00:51;1.50;;;0.98;;
21432;SDS011;18592;49.708;10.900;2023-03-13T13:05:32;2.03;;;0.90;;
21432;SDS011;18592;49.708;10.900;2023-03-13T13:07:34;1.50;;;1.23;;
21432;SDS011;18592;49.708;10.900;2023-03-13T13:12:21;1.45;;;1.20;;
21432;SDS011;18592;49.708;10.900;2023-03-13T13:16:26;3.00;;;1.10;;
21432;SDS011;18592;49.708;10.900;2023-03-13T13:18:33;1.30;;;0.98;;
21432;SDS011;18592;49.708;10.900;2023-03-13T13:20:36;2.58;;;1.05;;
21432;SDS011;18592;49.708;10.900;2023-03-13T13:24:49;3.08;;;1.33;;
21432;SDS011;18592;49.708;10.900;2023-03-13T13:26:52;1.52;;;1.10;;
21432;SDS011;18592;49.708;10.900;2023-03-13T13:28:54;1.23;;;1.02;;
21432;SDS011;18592;49.708;10.900;2023-03-13T13:30:58;1.70;;;1.10;;
21432;SDS011;18592;49.708;10.900;2023-03-13T13:35:21;2.25;;;1.40;;
21432;SDS011;18592;49.708;10.900;2023-03-13T13:37:27;1.95;;;1.23;;
21432;SDS011;18592;49.708;10.900;2023-03-13T13:39:38;2.35;;;1.20;;
21432;SDS011;18592;49.708;10.900;2023-03-13T13:41:50;1.50;;;1.10;;
21432;SDS011;18592;49.708;10.900;2023-03-13T13:46:30;1.15;;;1.05;;
21432;SDS011;18592;49.708;10.900;2023-03-13T13:48:36;1.80;;;1.23;;
21432;SDS011;18592;49.708;10.900;2023-03-13T13:51:13;1.92;;;1.08;;
21432;SDS011;18592;49.708;10.900;2023-03-13T13:53:28;13.77;;;2.70;;
21432;SDS011;18592;49.708;10.900;2023-03-13T13:55:33;18.63;;;3.38;;
21432;SDS011;18592;49.708;10.900;2023-03-13T13:57:44;12.93;;;3.00;;